createdAt,value
2019-01-21T00:00:42.669Z,98269.47
2019-01-21T00:03:14.988Z,98260.47
2019-01-21T00:05:47.074Z,98267.38
2019-01-21T00:08:19.080Z,98272.41
2019-01-21T00:10:51.076Z,98272.41
2019-01-21T00:13:23.072Z,98272.86
2019-01-21T00:15:55.035Z,98273.04
2019-01-21T00:18:27.043Z,98267.27
2019-01-21T00:20:59.046Z,98273.00
2019-01-21T00:23:31.052Z,98269.09
2019-01-21T00:26:03.062Z,98271.86
2019-01-21T00:28:35.082Z,98270.09
2019-01-21T00:31:07.045Z,98275.69
2019-01-21T00:33:39.061Z,98273.23
2019-01-21T00:36:11.061Z,98270.78
2019-01-21T00:38:43.049Z,98276.50
2019-01-21T00:41:15.004Z,98276.00
2019-01-21T00:43:47.079Z,98273.38
2019-01-21T00:46:19.191Z,98282.16
2019-01-21T00:48:51.284Z,98275.48
2019-01-21T00:51:23.260Z,98276.81
2019-01-21T00:53:55.278Z,98284.55
2019-01-21T00:56:27.268Z,98281.03
2019-01-21T00:58:59.261Z,98277.08
2019-01-21T01:01:31.251Z,98281.54
2019-01-21T01:04:03.304Z,98292.89
2019-01-21T01:06:35.314Z,98284.86
2019-01-21T01:09:07.483Z,98288.20
2019-01-21T01:11:39.492Z,98296.60
2019-01-21T01:14:11.446Z,98292.52
2019-01-21T01:16:43.431Z,98292.70
2019-01-21T01:19:15.453Z,98299.38
2019-01-21T01:21:47.454Z,98296.47
2019-01-21T01:24:19.429Z,98297.30
2019-01-21T01:26:51.404Z,98299.50
2019-01-21T01:29:23.402Z,98296.86
2019-01-21T01:31:55.431Z,98305.91
2019-01-21T01:34:27.384Z,98309.35
2019-01-21T01:36:59.404Z,98307.03
2019-01-21T01:39:31.407Z,98309.24
2019-01-21T01:42:03.392Z,98302.95
2019-01-21T01:44:35.366Z,98311.23
2019-01-21T01:47:07.364Z,98301.18
2019-01-21T01:49:39.338Z,98310.05
2019-01-21T01:52:11.328Z,98315.87
2019-01-21T01:54:43.533Z,98313.86
2019-01-21T01:57:15.530Z,98307.51
2019-01-21T01:59:47.502Z,98314.14
2019-01-21T02:02:19.483Z,98312.57
2019-01-21T02:04:51.765Z,98315.40
2019-01-21T02:07:23.831Z,98311.36
2019-01-21T02:09:55.811Z,98315.42
2019-01-21T02:12:27.837Z,98318.67
2019-01-21T02:14:59.796Z,98318.53
2019-01-21T02:17:31.800Z,98319.32
2019-01-21T02:20:05.806Z,98315.75
2019-01-21T02:22:44.139Z,98321.38
2019-01-21T02:25:16.658Z,98318.81
2019-01-21T02:28:22.137Z,98322.72
2019-01-21T02:31:34.507Z,98320.58
2019-01-21T02:34:35.598Z,98327.27
2019-01-21T02:37:49.416Z,98323.69
2019-01-21T02:41:06.309Z,98329.50
2019-01-21T02:44:20.534Z,98330.02
2019-01-21T02:47:01.567Z,98325.93
2019-01-21T02:50:04.811Z,98330.30
2019-01-21T02:53:30.985Z,98325.17
2019-01-21T02:56:46.627Z,98320.39
2019-01-21T03:00:11.687Z,98321.14
2019-01-21T03:03:21.737Z,98316.34
2019-01-21T03:06:34.269Z,98310.25
2019-01-21T03:09:36.721Z,98307.68
2019-01-21T03:12:38.210Z,98315.97
2019-01-21T03:15:47.651Z,98313.95
2019-01-21T03:19:03.111Z,98311.30
2019-01-21T03:22:11.577Z,98312.77
2019-01-21T03:25:31.103Z,98308.94
2019-01-21T03:28:39.486Z,98317.27
2019-01-21T03:31:54.125Z,98312.98
2019-01-21T03:35:04.037Z,98316.07
2019-01-21T03:38:32.938Z,98311.73
2019-01-21T03:41:55.667Z,98311.12
2019-01-21T03:44:47.500Z,98311.88
2019-01-21T03:47:32.494Z,98307.02
2019-01-21T03:50:36.880Z,98308.67
2019-01-21T03:53:40.510Z,98321.06
2019-01-21T03:56:39.636Z,98316.21
2019-01-21T03:59:49.258Z,98315.09
2019-01-21T04:03:03.998Z,98315.72
2019-01-21T04:05:52.543Z,98318.41
2019-01-21T04:08:54.449Z,98314.31
2019-01-21T04:11:55.652Z,98315.79
2019-01-21T04:14:46.599Z,98317.77
2019-01-21T04:17:57.167Z,98311.89
2019-01-21T04:21:16.309Z,98317.79
2019-01-21T04:24:34.442Z,98317.28
2019-01-21T04:27:54.108Z,98320.86
2019-01-21T04:30:55.136Z,98330.02
2019-01-21T04:33:56.019Z,98323.03
2019-01-21T04:37:03.807Z,98322.29
2019-01-21T04:40:01.269Z,98324.80
2019-01-21T04:43:18.036Z,98333.09
2019-01-21T04:46:31.265Z,98335.40
2019-01-21T04:49:16.920Z,98334.57
2019-01-21T04:52:24.934Z,98331.70
2019-01-21T04:55:35.596Z,98336.50
2019-01-21T04:58:45.052Z,98325.45
2019-01-21T05:01:42.601Z,98329.05
2019-01-21T05:04:46.319Z,98331.91
2019-01-21T05:07:31.754Z,98335.84
2019-01-21T05:10:30.101Z,98331.93
2019-01-21T05:13:35.172Z,98333.38
2019-01-21T05:16:46.366Z,98336.41
2019-01-21T05:20:09.427Z,98336.75
2019-01-21T05:23:24.527Z,98331.77
2019-01-21T05:26:22.793Z,98336.77
2019-01-21T05:29:46.326Z,98333.02
2019-01-21T05:33:00.227Z,98334.97
2019-01-21T05:35:54.188Z,98346.41
2019-01-21T05:38:49.721Z,98342.48
2019-01-21T05:42:15.701Z,98348.90
2019-01-21T05:45:24.216Z,98351.05
2019-01-21T05:48:48.901Z,98356.23
2019-01-21T05:52:01.798Z,98353.72
2019-01-21T05:55:11.755Z,98358.72
2019-01-21T05:58:19.877Z,98364.27
2019-01-21T06:01:35.622Z,98370.72
2019-01-21T06:04:33.556Z,98378.72
2019-01-21T06:07:46.415Z,98378.73
2019-01-21T06:10:39.486Z,98375.88
2019-01-21T06:14:04.726Z,98376.20
2019-01-21T06:16:59.548Z,98384.95
2019-01-21T06:20:07.669Z,98378.19
2019-01-21T06:22:52.854Z,98382.09
2019-01-21T06:26:08.664Z,98384.59
2019-01-21T06:29:05.391Z,98386.20
2019-01-21T06:32:03.655Z,98392.09
2019-01-21T06:35:08.783Z,98387.98
2019-01-21T06:38:24.120Z,98390.45
2019-01-21T06:41:33.860Z,98386.31
2019-01-21T06:44:38.449Z,98394.65
2019-01-21T06:47:45.276Z,98400.00
2019-01-21T06:50:57.647Z,98400.36
2019-01-21T06:53:58.579Z,98408.05
2019-01-21T06:57:15.559Z,98408.06
2019-01-21T07:00:09.589Z,98411.81
2019-01-21T07:03:19.180Z,98406.61
2019-01-21T07:06:32.944Z,98408.37
2019-01-21T07:09:18.124Z,98412.12
2019-01-21T07:12:00.233Z,98418.05
2019-01-21T07:15:00.325Z,98416.61
2019-01-21T07:18:17.628Z,98428.23
2019-01-21T07:21:33.339Z,98425.91
2019-01-21T07:24:43.591Z,98428.41
2019-01-21T07:27:54.206Z,98428.40
2019-01-21T07:30:37.812Z,98429.44
2019-01-21T07:33:29.300Z,98428.86
2019-01-21T07:36:51.486Z,98427.83
2019-01-21T07:39:47.723Z,98433.88
2019-01-21T07:43:10.766Z,98429.97
2019-01-21T07:46:04.843Z,98429.28
2019-01-21T07:49:17.532Z,98437.14
2019-01-21T07:52:22.601Z,98441.20
2019-01-21T07:55:23.487Z,98439.84
2019-01-21T07:58:39.151Z,98444.89
2019-01-21T08:01:24.715Z,98444.94
2019-01-21T08:04:29.447Z,98445.69
2019-01-21T08:07:28.385Z,98442.84
2019-01-21T08:10:37.714Z,98451.09
2019-01-21T08:13:50.197Z,98450.90
2019-01-21T08:17:28.459Z,98457.17
2019-01-21T08:20:28.962Z,98451.08
2019-01-21T08:23:48.106Z,98453.23
2019-01-21T08:27:02.191Z,98454.08
2019-01-21T08:29:48.993Z,98463.03
2019-01-21T08:32:52.313Z,98462.65
2019-01-21T08:35:46.113Z,98457.28
2019-01-21T08:38:50.758Z,98463.91
2019-01-21T08:42:04.630Z,98462.69
2019-01-21T08:45:21.888Z,98466.46
2019-01-21T08:48:44.399Z,98460.33
2019-01-21T08:51:58.704Z,98461.27
2019-01-21T08:55:24.980Z,98466.27
2019-01-21T08:58:47.579Z,98465.02
2019-01-21T09:02:00.356Z,98463.23
2019-01-21T09:04:50.739Z,98464.30
2019-01-21T09:08:06.352Z,98464.67
2019-01-21T09:11:28.975Z,98467.16
2019-01-21T09:14:27.767Z,98460.91
2019-01-21T09:17:16.351Z,98458.77
2019-01-21T09:20:25.650Z,98459.63
2019-01-21T09:23:23.129Z,98462.48
2019-01-21T09:26:28.072Z,98462.22
2019-01-21T09:29:27.279Z,98468.41
2019-01-21T09:32:11.568Z,98467.89
2019-01-21T09:35:20.124Z,98470.72
2019-01-21T09:38:19.208Z,98465.03
2019-01-21T09:41:32.291Z,98463.05
2019-01-21T09:44:15.784Z,98464.64
2019-01-21T09:46:47.467Z,98465.08
2019-01-21T09:49:18.443Z,98470.33
2019-01-21T09:52:00.757Z,98469.45
2019-01-21T09:54:35.121Z,98473.18
2019-01-21T09:57:09.281Z,98472.52
2019-01-21T09:59:41.760Z,98473.66
2019-01-21T10:02:14.858Z,98469.88
2019-01-21T10:04:55.844Z,98470.16
2019-01-21T10:08:24.875Z,98473.14
2019-01-21T10:11:16.071Z,98469.04
2019-01-21T10:14:45.076Z,98461.78
2019-01-21T10:17:26.446Z,98454.35
2019-01-21T10:20:32.668Z,98451.95
2019-01-21T10:23:50.929Z,98445.67
2019-01-21T10:27:01.123Z,98444.00
2019-01-21T10:30:14.828Z,98446.06
2019-01-21T10:33:23.549Z,98444.81
2019-01-21T10:36:51.776Z,98439.39
2019-01-21T10:39:40.380Z,98438.50
2019-01-21T10:42:39.100Z,98435.35
2019-01-21T10:45:49.421Z,98433.55
2019-01-21T10:48:50.412Z,98432.61
2019-01-21T10:51:52.315Z,98431.91
2019-01-21T10:54:55.542Z,98430.91
2019-01-21T10:58:03.069Z,98432.88
2019-01-21T11:01:26.734Z,98430.78
2019-01-21T11:04:22.742Z,98435.69
2019-01-21T11:07:16.535Z,98441.78
2019-01-21T11:10:26.393Z,98434.23
2019-01-21T11:14:01.169Z,98429.09
2019-01-21T11:17:06.917Z,98429.98
2019-01-21T11:20:04.226Z,98421.44
2019-01-21T11:22:59.633Z,98420.36
2019-01-21T11:26:12.908Z,98418.78
2019-01-21T11:29:11.571Z,98412.93
2019-01-21T11:32:30.721Z,98405.70
2019-01-21T11:35:41.674Z,98410.16
2019-01-21T11:38:38.437Z,98412.05
2019-01-21T11:41:37.044Z,98410.27
2019-01-21T11:44:47.943Z,98405.14
2019-01-21T11:47:58.865Z,98394.10
2019-01-21T11:51:09.756Z,98395.95
2019-01-21T11:54:20.658Z,98394.11
2019-01-21T11:57:31.538Z,98394.00
2019-01-21T12:00:11.668Z,98390.86
2019-01-21T12:03:23.612Z,98393.63
2019-01-21T12:06:01.403Z,98397.63
2019-01-21T12:09:12.270Z,98393.33
2019-01-21T12:12:09.455Z,98389.02
2019-01-21T12:15:20.383Z,98386.13
2019-01-21T12:18:16.620Z,98383.08
2019-01-21T12:21:27.542Z,98379.00
2019-01-21T12:24:38.578Z,98381.81
2019-01-21T12:27:32.133Z,98384.13
2019-01-21T12:30:43.028Z,98384.20
2019-01-21T12:33:53.946Z,98385.19
2019-01-21T12:37:04.853Z,98379.65
2019-01-21T12:40:15.734Z,98379.95
2019-01-21T12:43:26.655Z,98380.69
2019-01-21T12:46:37.617Z,98374.32
2019-01-21T12:49:48.538Z,98373.76
2019-01-21T12:52:38.052Z,98359.59
2019-01-21T12:55:48.965Z,98356.88
2019-01-21T12:58:59.859Z,98358.34
2019-01-21T13:02:10.781Z,98354.94
2019-01-21T13:05:21.693Z,98350.13
2019-01-21T13:08:19.628Z,98351.38
2019-01-21T13:11:30.526Z,98347.48
2019-01-21T13:14:41.451Z,98347.99
2019-01-21T13:17:52.352Z,98351.86
2019-01-21T13:21:03.256Z,98352.45
2019-01-21T13:24:14.194Z,98350.76
2019-01-21T13:27:08.767Z,98345.17
2019-01-21T13:30:03.036Z,98343.70
2019-01-21T13:33:13.907Z,98340.59
2019-01-21T13:36:30.840Z,98344.16
2019-01-21T13:39:29.093Z,98341.11
2019-01-21T13:42:09.181Z,98336.22
2019-01-21T13:45:15.123Z,98340.66
2019-01-21T13:48:23.146Z,98338.58
2019-01-21T13:51:13.435Z,98340.48
2019-01-21T13:54:22.224Z,98340.27
2019-01-21T13:57:48.429Z,98336.61
2019-01-21T14:00:40.911Z,98336.53
2019-01-21T14:03:53.867Z,98335.05
2019-01-21T14:07:28.947Z,98334.95
2019-01-21T14:10:42.053Z,98344.14
2019-01-21T14:13:32.609Z,98342.20
2019-01-21T14:17:01.748Z,98343.95
2019-01-21T14:20:16.882Z,98341.98
2019-01-21T14:23:38.380Z,98336.77
2019-01-21T14:27:00.934Z,98325.88
2019-01-21T14:30:05.729Z,98328.77
2019-01-21T14:33:25.352Z,98326.38
2019-01-21T14:36:25.415Z,98334.22
2019-01-21T14:39:46.183Z,98325.47
2019-01-21T14:42:43.478Z,98329.58
2019-01-21T14:45:29.787Z,98328.77
2019-01-21T14:48:26.627Z,98326.53
2019-01-21T14:51:52.577Z,98331.70
2019-01-21T14:54:48.993Z,98332.86
2019-01-21T14:57:54.479Z,98334.14
2019-01-21T15:01:12.497Z,98328.64
2019-01-21T15:04:25.026Z,98323.53
2019-01-21T15:07:14.075Z,98317.95
2019-01-21T15:10:28.924Z,98314.07
2019-01-21T15:13:08.370Z,98314.88
2019-01-21T15:16:21.704Z,98317.17
2019-01-21T15:19:50.530Z,98312.73
2019-01-21T15:22:39.989Z,98309.09
2019-01-21T15:25:50.686Z,98310.63
2019-01-21T15:29:28.718Z,98313.37
2019-01-21T15:32:48.495Z,98304.94
2019-01-21T15:36:04.679Z,98309.60
2019-01-21T15:39:15.969Z,98313.48
2019-01-21T15:42:09.546Z,98309.09
2019-01-21T15:45:39.237Z,98308.08
2019-01-21T15:48:30.587Z,98309.67
2019-01-21T15:51:33.960Z,98315.55
2019-01-21T15:54:14.706Z,98318.81
2019-01-21T15:57:19.553Z,98318.16
2019-01-21T16:00:35.539Z,98313.78
2019-01-21T16:03:46.568Z,98314.16
2019-01-21T16:07:00.554Z,98305.59
2019-01-21T16:09:54.141Z,98310.04
2019-01-21T16:12:57.873Z,98304.88
2019-01-21T16:15:58.067Z,98315.00
2019-01-21T16:18:41.324Z,98323.31
2019-01-21T16:22:01.214Z,98319.19
2019-01-21T16:25:08.229Z,98319.48
2019-01-21T16:28:20.718Z,98315.27
2019-01-21T16:30:56.837Z,98315.16
2019-01-21T16:34:12.288Z,98314.98
2019-01-21T16:37:18.826Z,98311.58
2019-01-21T16:41:03.032Z,98314.09
2019-01-21T16:43:35.077Z,98307.96
2019-01-21T16:46:07.075Z,98312.11
2019-01-21T16:48:39.098Z,98306.50
2019-01-21T16:51:11.159Z,98311.13
2019-01-21T16:53:43.224Z,98305.30
2019-01-21T16:56:15.254Z,98310.50
2019-01-21T16:58:47.319Z,98311.05
2019-01-21T17:01:19.363Z,98310.11
2019-01-21T17:03:51.477Z,98309.48
2019-01-21T17:06:23.528Z,98312.06
2019-01-21T17:08:55.574Z,98308.12
2019-01-21T17:11:27.847Z,98305.41
2019-01-21T17:13:59.910Z,98315.98
2019-01-21T17:16:31.978Z,98315.09
2019-01-21T17:19:04.141Z,98320.63
2019-01-21T17:21:36.275Z,98321.17
2019-01-21T17:24:08.329Z,98320.12
2019-01-21T17:26:41.826Z,98310.23
2019-01-21T17:29:13.859Z,98308.54
2019-01-21T17:31:46.000Z,98304.66
2019-01-21T17:34:18.095Z,98297.08
2019-01-21T17:36:50.117Z,98302.45
2019-01-21T17:39:22.119Z,98305.55
2019-01-21T17:41:54.222Z,98305.76
2019-01-21T17:44:26.231Z,98308.32
2019-01-21T17:46:58.236Z,98309.23
2019-01-21T17:49:30.292Z,98309.91
2019-01-21T17:52:02.409Z,98309.92
2019-01-21T17:54:35.293Z,98312.44
2019-01-21T17:57:08.441Z,98324.78
2019-01-21T17:59:40.420Z,98323.47
2019-01-21T18:02:12.530Z,98320.89
2019-01-21T18:04:44.595Z,98323.16
2019-01-21T18:07:16.720Z,98328.36
2019-01-21T18:09:48.817Z,98325.63
2019-01-21T18:12:20.847Z,98331.70
2019-01-21T18:14:52.981Z,98329.62
2019-01-21T18:17:25.573Z,98325.35
2019-01-21T18:19:57.726Z,98330.43
2019-01-21T18:22:29.904Z,98329.70
2019-01-21T18:25:02.060Z,98321.85
2019-01-21T18:27:34.198Z,98318.67
2019-01-21T18:30:09.892Z,98325.11
2019-01-21T18:32:42.000Z,98324.25
2019-01-21T18:35:14.172Z,98321.40
2019-01-21T18:37:46.225Z,98323.73
2019-01-21T18:40:19.528Z,98321.02
2019-01-21T18:42:51.594Z,98321.66
2019-01-21T18:45:26.035Z,98316.67
2019-01-21T18:47:58.015Z,98306.44
2019-01-21T18:50:30.313Z,98307.63
2019-01-21T18:53:05.640Z,98308.13
2019-01-21T18:55:37.773Z,98312.98
2019-01-21T18:58:09.958Z,98316.05
2019-01-21T19:00:42.056Z,98310.59
2019-01-21T19:03:14.211Z,98307.94
2019-01-21T19:05:46.407Z,98307.36
2019-01-21T19:08:18.448Z,98304.84
2019-01-21T19:10:50.574Z,98303.35
2019-01-21T19:13:22.640Z,98304.23
2019-01-21T19:15:54.750Z,98301.95
2019-01-21T19:18:26.774Z,98312.47
2019-01-21T19:20:58.969Z,98308.70
2019-01-21T19:23:31.017Z,98301.32
2019-01-21T19:26:03.249Z,98309.44
2019-01-21T19:28:35.282Z,98301.72
2019-01-21T19:31:07.366Z,98303.64
2019-01-21T19:33:39.390Z,98304.41
2019-01-21T19:36:11.624Z,98313.41
2019-01-21T19:38:43.689Z,98311.27
2019-01-21T19:41:15.762Z,98310.33
2019-01-21T19:43:47.799Z,98318.46
2019-01-21T19:46:19.949Z,98316.50
2019-01-21T19:48:52.024Z,98315.03
2019-01-21T19:51:24.174Z,98322.70
2019-01-21T19:53:56.318Z,98327.30
2019-01-21T19:56:28.392Z,98322.17
2019-01-21T19:59:00.488Z,98319.66
2019-01-21T20:01:32.714Z,98313.77
2019-01-21T20:04:04.837Z,98309.28
2019-01-21T20:06:36.983Z,98312.42
2019-01-21T20:09:09.069Z,98312.53
2019-01-21T20:11:41.247Z,98302.17
2019-01-21T20:14:13.354Z,98308.97
2019-01-21T20:16:45.476Z,98301.36
2019-01-21T20:19:17.585Z,98295.05
2019-01-21T20:21:49.739Z,98299.33
2019-01-21T20:24:21.773Z,98295.36
2019-01-21T20:26:53.966Z,98299.16
2019-01-21T20:29:26.035Z,98304.19
2019-01-21T20:31:58.245Z,98290.33
2019-01-21T20:34:30.321Z,98299.22
2019-01-21T20:37:02.460Z,98297.17
2019-01-21T20:39:34.553Z,98299.94
2019-01-21T20:42:08.301Z,98303.94
2019-01-21T20:44:40.374Z,98297.60
2019-01-21T20:47:12.535Z,98294.09
2019-01-21T20:49:44.622Z,98293.77
2019-01-21T20:52:16.678Z,98300.43
2019-01-21T20:54:48.776Z,98305.59
2019-01-21T20:57:20.911Z,98303.08
2019-01-21T20:59:52.993Z,98301.69
2019-01-21T21:02:25.052Z,98300.88
2019-01-21T21:04:57.105Z,98303.00
2019-01-21T21:07:29.080Z,98295.86
2019-01-21T21:10:01.168Z,98292.34
2019-01-21T21:12:33.202Z,98291.26
2019-01-21T21:15:09.199Z,98290.69
2019-01-21T21:17:41.206Z,98286.00
2019-01-21T21:20:13.396Z,98293.77
2019-01-21T21:22:45.477Z,98295.66
2019-01-21T21:25:17.971Z,98289.38
2019-01-21T21:27:49.964Z,98287.75
2019-01-21T21:30:24.462Z,98293.83
2019-01-21T21:32:56.860Z,98292.03
2019-01-21T21:35:29.135Z,98291.83
2019-01-21T21:38:01.172Z,98287.55
2019-01-21T21:40:33.252Z,98287.92
2019-01-21T21:43:05.211Z,98288.95
2019-01-21T21:45:37.548Z,98286.43
2019-01-21T21:48:09.516Z,98281.20
2019-01-21T21:50:41.555Z,98283.92
2019-01-21T21:53:13.517Z,98286.12
2019-01-21T21:55:45.471Z,98283.29
2019-01-21T21:58:17.425Z,98284.48
2019-01-21T22:00:49.411Z,98282.89
2019-01-21T22:03:21.336Z,98276.49
2019-01-21T22:05:53.287Z,98275.75
2019-01-21T22:08:25.221Z,98270.59
2019-01-21T22:10:57.268Z,98272.04
2019-01-21T22:13:29.199Z,98267.64
2019-01-21T22:16:01.184Z,98274.63
2019-01-21T22:18:33.851Z,98273.80
2019-01-21T22:21:05.821Z,98275.44
2019-01-21T22:23:37.767Z,98263.38
2019-01-21T22:26:09.754Z,98263.44
2019-01-21T22:28:41.766Z,98261.00
2019-01-21T22:31:13.826Z,98258.72
2019-01-21T22:33:45.844Z,98257.55
2019-01-21T22:36:17.893Z,98256.98
2019-01-21T22:38:49.944Z,98258.23
2019-01-21T22:41:21.963Z,98256.46
2019-01-21T22:43:54.000Z,98252.72
2019-01-21T22:46:25.976Z,98249.64
2019-01-21T22:48:58.020Z,98243.78
2019-01-21T22:51:29.993Z,98242.03
2019-01-21T22:54:02.033Z,98241.26
2019-01-21T22:56:34.020Z,98243.10
2019-01-21T22:59:06.053Z,98238.08
2019-01-21T23:01:38.348Z,98235.81
2019-01-21T23:04:10.405Z,98243.08
2019-01-21T23:06:42.400Z,98244.19
2019-01-21T23:09:14.451Z,98237.00
2019-01-21T23:11:50.949Z,98237.34
2019-01-21T23:14:22.944Z,98226.89
2019-01-21T23:16:54.922Z,98223.37
2019-01-21T23:19:26.919Z,98223.11
2019-01-21T23:21:58.900Z,98225.11
2019-01-21T23:24:30.970Z,98216.83
2019-01-21T23:27:02.958Z,98209.17
2019-01-21T23:29:34.970Z,98206.21
2019-01-21T23:32:06.962Z,98195.34
2019-01-21T23:34:38.998Z,98191.16
2019-01-21T23:37:10.981Z,98188.77
2019-01-21T23:39:42.993Z,98188.91
2019-01-21T23:42:15.002Z,98193.61
2019-01-21T23:44:47.320Z,98193.98
2019-01-21T23:47:19.320Z,98188.03
2019-01-21T23:49:51.345Z,98181.27
2019-01-21T23:52:23.324Z,98179.35
2019-01-21T23:54:55.345Z,98177.97
2019-01-21T23:57:27.303Z,98175.84
2019-01-21T23:59:59.324Z,98168.86
